createdAt,value
2018-07-31T00:02:55.277Z,26.10
2018-07-31T00:05:53.651Z,26.10
2018-07-31T00:08:51.971Z,26.10
2018-07-31T00:11:50.424Z,26.10
2018-07-31T00:14:48.654Z,26.10
2018-07-31T00:17:47.285Z,26.10
2018-07-31T00:20:45.790Z,26.10
2018-07-31T00:23:44.354Z,26.00
2018-07-31T00:26:43.204Z,26.10
2018-07-31T00:29:41.843Z,26.00
2018-07-31T00:32:40.449Z,26.00
2018-07-31T00:35:39.114Z,26.00
2018-07-31T00:38:37.394Z,26.00
2018-07-31T00:41:35.822Z,25.90
2018-07-31T00:44:34.062Z,26.00
2018-07-31T00:47:32.342Z,25.90
2018-07-31T00:50:31.017Z,26.00
2018-07-31T00:53:29.303Z,26.00
2018-07-31T00:56:27.618Z,25.90
2018-07-31T00:59:27.225Z,25.90
2018-07-31T01:02:25.736Z,25.80
2018-07-31T01:05:24.277Z,25.80
2018-07-31T01:08:23.456Z,25.80
2018-07-31T01:17:02.318Z,25.60
2018-07-31T01:20:00.711Z,25.60
2018-07-31T01:25:50.807Z,25.70
2018-07-31T01:28:49.302Z,25.60
2018-07-31T01:31:47.703Z,25.60
2018-07-31T01:34:46.152Z,25.70
2018-07-31T01:37:44.472Z,25.70
2018-07-31T01:40:43.164Z,25.70
2018-07-31T01:43:41.580Z,25.60
2018-07-31T01:46:39.943Z,25.60
2018-07-31T01:49:38.322Z,25.60
2018-07-31T01:52:36.613Z,25.60
2018-07-31T01:55:34.873Z,25.60
2018-07-31T01:58:33.130Z,25.60
2018-07-31T02:01:31.608Z,25.60
2018-07-31T02:07:20.004Z,25.60
2018-07-31T02:10:18.169Z,25.60
2018-07-31T02:13:17.287Z,25.60
2018-07-31T02:16:15.638Z,25.60
2018-07-31T02:22:04.328Z,25.60
2018-07-31T02:25:02.630Z,25.50
2018-07-31T02:28:00.879Z,25.60
2018-07-31T02:30:59.227Z,25.50
2018-07-31T02:33:57.727Z,25.50
2018-07-31T02:36:56.053Z,25.60
2018-07-31T02:39:54.679Z,25.60
2018-07-31T02:42:53.087Z,25.50
2018-07-31T02:45:51.695Z,25.40
2018-07-31T02:48:49.971Z,25.40
2018-07-31T02:51:48.336Z,25.40
2018-07-31T02:54:46.666Z,25.40
2018-07-31T02:57:45.919Z,25.40
2018-07-31T03:00:44.227Z,25.40
2018-07-31T03:03:42.594Z,25.40
2018-07-31T03:06:41.147Z,25.40
2018-07-31T03:09:39.870Z,25.40
2018-07-31T03:12:38.143Z,25.30
2018-07-31T03:15:36.518Z,25.40
2018-07-31T03:18:35.090Z,25.40
2018-07-31T03:21:33.475Z,25.40
2018-07-31T03:24:31.753Z,25.40
2018-07-31T03:27:29.975Z,25.30
2018-07-31T03:30:28.476Z,25.40
2018-07-31T03:33:26.554Z,25.30
2018-07-31T03:36:24.747Z,25.40
2018-07-31T03:39:22.738Z,25.30
2018-07-31T03:42:21.581Z,25.30
2018-07-31T03:45:19.850Z,25.30
2018-07-31T03:51:08.580Z,25.30
2018-07-31T03:54:06.835Z,25.30
2018-07-31T03:57:05.492Z,25.30
2018-07-31T04:00:03.805Z,25.30
2018-07-31T04:03:02.287Z,25.30
2018-07-31T04:06:00.674Z,25.30
2018-07-31T04:08:59.133Z,25.30
2018-07-31T04:14:48.716Z,25.30
2018-07-31T04:17:47.028Z,25.30
2018-07-31T04:20:45.247Z,25.40
2018-07-31T04:23:43.693Z,25.30
2018-07-31T04:26:42.079Z,25.20
2018-07-31T04:29:40.547Z,25.30
2018-07-31T04:32:39.022Z,25.30
2018-07-31T04:35:37.461Z,25.30
2018-07-31T04:38:36.077Z,25.30
2018-07-31T04:41:34.214Z,25.40
2018-07-31T04:44:32.419Z,25.40
2018-07-31T04:47:30.626Z,25.40
2018-07-31T04:50:29.094Z,25.40
2018-07-31T04:53:28.158Z,25.50
2018-07-31T04:56:26.703Z,25.50
2018-07-31T04:59:25.244Z,25.50
2018-07-31T05:02:23.728Z,25.50
2018-07-31T05:05:21.958Z,25.50
2018-07-31T05:08:20.453Z,25.50
2018-07-31T05:11:18.952Z,25.50
2018-07-31T05:14:17.238Z,25.60
2018-07-31T05:17:15.745Z,25.60
2018-07-31T05:20:15.047Z,25.60
2018-07-31T05:23:13.327Z,25.70
2018-07-31T05:26:11.621Z,25.70
2018-07-31T05:29:09.924Z,25.70
2018-07-31T05:32:08.524Z,25.70
2018-07-31T05:35:07.228Z,25.70
2018-07-31T05:38:05.713Z,25.70
2018-07-31T05:41:04.224Z,25.80
2018-07-31T05:44:02.843Z,25.90
2018-07-31T05:47:01.153Z,26.00
2018-07-31T05:49:59.701Z,26.00
2018-07-31T05:52:58.246Z,26.00
2018-07-31T05:55:56.943Z,25.90
2018-07-31T05:58:55.790Z,25.90
2018-07-31T06:01:54.214Z,25.90
2018-07-31T06:04:52.648Z,25.90
2018-07-31T06:07:51.043Z,25.90
2018-07-31T06:10:49.426Z,25.90
2018-07-31T06:13:47.686Z,25.90
2018-07-31T06:16:46.947Z,25.90
2018-07-31T06:19:45.406Z,25.90
2018-07-31T06:22:44.162Z,25.90
2018-07-31T06:25:42.297Z,25.90
2018-07-31T06:28:40.516Z,26.00
2018-07-31T06:31:38.728Z,26.00
2018-07-31T06:34:37.133Z,26.00
2018-07-31T06:37:35.515Z,25.90
2018-07-31T06:40:33.977Z,26.00
2018-07-31T06:43:32.445Z,26.00
2018-07-31T06:46:30.835Z,25.90
2018-07-31T06:49:29.258Z,26.00
2018-07-31T06:52:27.706Z,26.00
2018-07-31T06:55:26.156Z,25.90
2018-07-31T06:58:24.672Z,25.90
2018-07-31T07:01:23.120Z,25.90
2018-07-31T07:04:21.675Z,25.90
2018-07-31T07:07:19.953Z,25.80
2018-07-31T07:10:18.311Z,25.80
2018-07-31T07:13:16.826Z,25.80
2018-07-31T07:16:15.170Z,25.90
2018-07-31T07:19:13.391Z,25.90
2018-07-31T07:22:11.759Z,26.40
2018-07-31T07:25:11.182Z,26.50
2018-07-31T07:28:10.622Z,27.20
2018-07-31T07:31:09.152Z,27.40
2018-07-31T07:34:07.791Z,27.40
2018-07-31T07:37:06.122Z,28.10
2018-07-31T07:40:04.968Z,28.60
2018-07-31T07:43:03.450Z,28.90
2018-07-31T07:46:01.898Z,29.20
2018-07-31T07:49:00.187Z,29.60
2018-07-31T07:51:58.747Z,30.00
2018-07-31T07:54:57.305Z,30.30
2018-07-31T07:57:55.643Z,30.60
2018-07-31T08:00:54.160Z,30.90
2018-07-31T08:03:52.758Z,31.10
2018-07-31T08:06:51.147Z,31.50
2018-07-31T08:09:49.693Z,31.70
2018-07-31T08:12:48.141Z,31.90
2018-07-31T08:15:46.578Z,32.10
2018-07-31T08:18:44.744Z,32.30
2018-07-31T08:21:43.139Z,32.40
2018-07-31T08:24:41.784Z,32.50
2018-07-31T08:27:40.145Z,32.60
2018-07-31T08:30:38.458Z,32.80
2018-07-31T08:33:36.824Z,33.00
2018-07-31T08:36:35.077Z,32.80
2018-07-31T08:39:33.154Z,32.80
2018-07-31T08:42:31.606Z,32.20
2018-07-31T08:45:30.082Z,31.20
2018-07-31T08:48:28.745Z,31.50
2018-07-31T08:51:27.520Z,32.10
2018-07-31T08:54:25.802Z,32.30
2018-07-31T08:57:24.183Z,31.20
2018-07-31T09:00:23.622Z,30.60
2018-07-31T09:03:22.098Z,30.20
2018-07-31T09:06:20.553Z,29.90
2018-07-31T09:09:20.772Z,29.90
2018-07-31T09:12:19.194Z,29.90
2018-07-31T09:15:17.573Z,29.50
2018-07-31T09:18:15.982Z,29.40
2018-07-31T09:21:13.995Z,29.30
2018-07-31T09:24:12.382Z,29.10
2018-07-31T09:32:57.346Z,28.50
2018-07-31T09:35:55.898Z,28.40
2018-07-31T09:38:54.625Z,28.20
2018-07-31T09:41:53.188Z,28.30
2018-07-31T09:44:51.839Z,28.80
2018-07-31T09:47:50.042Z,28.80
2018-07-31T09:50:48.814Z,28.70
2018-07-31T09:56:37.827Z,28.20
2018-07-31T09:59:36.108Z,28.10
2018-07-31T10:02:34.287Z,28.10
2018-07-31T10:05:32.882Z,28.10
2018-07-31T10:08:32.195Z,28.40
2018-07-31T10:11:30.598Z,29.00
2018-07-31T10:14:29.222Z,29.60
2018-07-31T10:17:27.753Z,30.00
2018-07-31T10:20:26.152Z,29.80
2018-07-31T10:23:24.597Z,29.70
2018-07-31T10:26:22.922Z,29.70
2018-07-31T10:29:21.267Z,29.50
2018-07-31T10:32:19.833Z,29.50
2018-07-31T10:35:19.426Z,29.30
2018-07-31T10:38:17.532Z,29.10
2018-07-31T10:41:16.007Z,29.10
2018-07-31T10:44:14.613Z,29.10
2018-07-31T10:47:12.866Z,29.00
2018-07-31T10:50:11.595Z,28.90
2018-07-31T10:53:10.857Z,28.70
2018-07-31T10:56:09.025Z,28.60
2018-07-31T10:59:08.565Z,28.60
2018-07-31T11:02:07.969Z,28.60
2018-07-31T11:05:06.283Z,28.60
2018-07-31T11:08:04.491Z,28.50
2018-07-31T11:11:02.834Z,28.50
2018-07-31T11:14:01.511Z,28.50
2018-07-31T11:16:59.693Z,28.50
2018-07-31T11:19:58.124Z,28.50
2018-07-31T11:22:56.313Z,28.50
2018-07-31T11:25:54.758Z,28.50
2018-07-31T11:28:52.907Z,28.50
2018-07-31T11:31:51.218Z,28.50
2018-07-31T11:34:49.318Z,28.50
2018-07-31T11:37:47.784Z,28.30
2018-07-31T11:40:46.119Z,28.40
2018-07-31T11:43:44.541Z,28.30
2018-07-31T11:46:43.938Z,28.30
2018-07-31T11:49:43.675Z,28.40
2018-07-31T11:52:42.243Z,28.30
2018-07-31T11:55:40.511Z,28.30
2018-07-31T11:58:38.633Z,28.40
2018-07-31T12:01:36.948Z,28.30
2018-07-31T12:04:35.514Z,28.30
2018-07-31T12:07:34.040Z,28.40
2018-07-31T12:10:32.368Z,28.40
2018-07-31T12:13:30.985Z,28.40
2018-07-31T12:16:29.231Z,28.40
2018-07-31T12:19:27.847Z,28.40
2018-07-31T12:22:26.117Z,28.40
2018-07-31T12:25:24.627Z,28.40
2018-07-31T12:28:23.921Z,28.40
2018-07-31T12:31:22.206Z,28.40
2018-07-31T12:34:20.515Z,28.40
2018-07-31T12:37:18.964Z,28.40
2018-07-31T12:40:17.357Z,28.40
2018-07-31T12:43:15.739Z,28.40
2018-07-31T12:46:14.406Z,28.40
2018-07-31T12:49:12.826Z,28.40
2018-07-31T12:52:11.010Z,28.40
2018-07-31T12:55:09.468Z,28.40
2018-07-31T12:58:07.718Z,28.30
2018-07-31T13:01:06.206Z,28.40
2018-07-31T13:04:04.624Z,28.40
2018-07-31T13:07:03.282Z,28.40
2018-07-31T13:10:01.386Z,28.50
2018-07-31T13:12:59.840Z,28.50
2018-07-31T13:15:58.253Z,28.30
2018-07-31T13:21:47.133Z,28.40
2018-07-31T13:24:45.823Z,28.30
2018-07-31T13:27:44.377Z,28.40
2018-07-31T13:30:43.026Z,28.40
2018-07-31T13:33:41.392Z,28.40
2018-07-31T13:36:40.107Z,28.50
2018-07-31T13:39:38.566Z,28.50
2018-07-31T13:42:36.890Z,28.50
2018-07-31T13:45:35.289Z,28.50
2018-07-31T13:48:33.696Z,28.50
2018-07-31T13:51:31.876Z,28.40
2018-07-31T13:54:30.146Z,28.50
2018-07-31T13:57:28.403Z,28.50
2018-07-31T14:00:26.711Z,28.50
2018-07-31T14:03:25.319Z,28.60
2018-07-31T14:06:23.612Z,28.50
2018-07-31T14:09:23.164Z,28.60
2018-07-31T14:12:21.598Z,28.70
2018-07-31T14:15:19.951Z,28.70
2018-07-31T14:18:18.383Z,28.60
2018-07-31T14:21:16.811Z,28.60
2018-07-31T14:24:15.077Z,28.60
2018-07-31T14:27:13.274Z,28.70
2018-07-31T14:30:11.858Z,28.70
2018-07-31T14:33:10.181Z,28.70
2018-07-31T14:36:08.602Z,28.90
2018-07-31T14:39:06.898Z,28.90
2018-07-31T14:42:05.326Z,28.80
2018-07-31T14:45:03.666Z,28.90
2018-07-31T14:48:02.513Z,29.00
2018-07-31T14:51:00.742Z,29.00
2018-07-31T14:53:59.171Z,29.00
2018-07-31T14:56:57.391Z,29.00
2018-07-31T15:00:04.147Z,29.10
2018-07-31T15:03:02.766Z,29.00
2018-07-31T15:06:01.078Z,28.90
2018-07-31T15:08:59.552Z,28.90
2018-07-31T15:11:58.145Z,29.10
2018-07-31T15:14:56.593Z,29.10
2018-07-31T15:17:54.797Z,29.10
2018-07-31T15:20:53.070Z,29.20
2018-07-31T15:23:51.424Z,29.20
2018-07-31T15:26:49.944Z,29.10
2018-07-31T15:29:48.555Z,29.30
2018-07-31T15:32:47.042Z,29.30
2018-07-31T15:35:45.624Z,29.20
2018-07-31T15:38:43.844Z,29.20
2018-07-31T15:41:42.192Z,29.20
2018-07-31T15:44:40.606Z,29.30
2018-07-31T15:47:39.245Z,29.30
2018-07-31T15:50:37.599Z,29.20
2018-07-31T15:53:35.719Z,29.20
2018-07-31T15:56:34.298Z,29.30
2018-07-31T15:59:32.380Z,29.20
2018-07-31T16:02:30.599Z,29.20
2018-07-31T16:05:28.759Z,29.20
2018-07-31T16:08:27.162Z,29.20
2018-07-31T16:11:25.312Z,29.20
2018-07-31T16:14:23.839Z,29.20
2018-07-31T16:20:13.226Z,29.20
2018-07-31T16:23:11.619Z,29.10
2018-07-31T16:26:09.924Z,29.10
2018-07-31T16:29:08.169Z,29.10
2018-07-31T16:32:06.567Z,29.10
2018-07-31T16:35:05.091Z,29.20
2018-07-31T16:38:03.323Z,29.30
2018-07-31T16:41:02.674Z,29.20
2018-07-31T16:44:01.090Z,28.80
2018-07-31T16:46:59.226Z,29.00
2018-07-31T16:49:57.570Z,28.90
2018-07-31T16:52:56.128Z,29.00
2018-07-31T16:55:54.607Z,29.10
2018-07-31T16:58:53.051Z,29.40
2018-07-31T17:01:52.570Z,29.50
2018-07-31T17:04:51.150Z,29.70
2018-07-31T17:07:49.542Z,29.60
2018-07-31T17:10:48.096Z,29.70
2018-07-31T17:19:26.841Z,29.60
2018-07-31T17:22:25.215Z,29.60
2018-07-31T17:25:25.080Z,29.60
2018-07-31T17:28:23.660Z,29.70
2018-07-31T17:31:22.006Z,29.70
2018-07-31T17:34:20.348Z,29.70
2018-07-31T17:37:19.132Z,29.60
2018-07-31T17:40:17.529Z,29.70
2018-07-31T17:43:15.690Z,29.60
2018-07-31T17:46:14.072Z,29.60
2018-07-31T17:49:12.446Z,29.60
2018-07-31T17:52:11.175Z,29.60
2018-07-31T17:55:09.776Z,29.50
2018-07-31T18:00:58.536Z,29.50
2018-07-31T18:03:57.084Z,29.50
2018-07-31T18:06:55.605Z,29.40
2018-07-31T18:09:54.253Z,29.40
2018-07-31T18:12:52.843Z,29.40
2018-07-31T18:15:51.346Z,29.40
2018-07-31T18:18:49.913Z,29.30
2018-07-31T18:21:48.340Z,29.30
2018-07-31T18:24:46.638Z,29.30
2018-07-31T18:27:44.747Z,29.20
2018-07-31T18:30:43.175Z,29.20
2018-07-31T18:33:41.384Z,29.10
2018-07-31T18:36:39.813Z,29.10
2018-07-31T18:39:38.113Z,29.00
2018-07-31T18:42:36.492Z,29.00
2018-07-31T18:45:35.225Z,28.90
2018-07-31T18:48:33.572Z,28.90
2018-07-31T18:51:31.978Z,28.90
2018-07-31T18:54:30.372Z,28.80
2018-07-31T18:57:28.794Z,28.80
2018-07-31T19:00:27.257Z,28.70
2018-07-31T19:03:25.718Z,28.70
2018-07-31T19:06:24.234Z,28.60
2018-07-31T19:09:22.767Z,28.60
2018-07-31T19:12:21.351Z,28.40
2018-07-31T19:15:19.871Z,28.40
2018-07-31T19:21:09.646Z,28.30
2018-07-31T19:24:09.338Z,28.30
2018-07-31T19:27:08.095Z,28.20
2018-07-31T19:30:06.504Z,28.20
2018-07-31T19:33:04.986Z,28.10
2018-07-31T19:36:03.686Z,28.10
2018-07-31T19:39:02.044Z,28.00
2018-07-31T19:42:00.684Z,27.90
2018-07-31T19:45:01.018Z,27.90
2018-07-31T19:48:00.171Z,27.70
2018-07-31T19:50:59.403Z,27.70
2018-07-31T19:53:59.291Z,27.60
2018-07-31T19:56:57.595Z,27.60
2018-07-31T19:59:56.043Z,27.50
2018-07-31T20:02:54.637Z,27.40
2018-07-31T20:05:53.265Z,27.40
2018-07-31T20:08:52.878Z,27.30
2018-07-31T20:11:51.236Z,27.20
2018-07-31T20:14:49.495Z,27.20
2018-07-31T20:17:47.874Z,27.30
2018-07-31T20:20:46.059Z,27.20
2018-07-31T20:23:44.546Z,27.00
2018-07-31T20:26:42.713Z,26.90
2018-07-31T20:29:41.203Z,26.80
2018-07-31T20:32:39.458Z,26.80
2018-07-31T20:35:37.664Z,26.80
2018-07-31T20:38:36.087Z,26.80
2018-07-31T20:41:35.424Z,26.70
2018-07-31T20:44:33.563Z,26.70
2018-07-31T20:47:32.359Z,26.70
2018-07-31T20:50:30.780Z,26.60
2018-07-31T20:53:28.996Z,26.50
2018-07-31T20:56:27.279Z,26.50
2018-07-31T20:59:25.550Z,26.40
2018-07-31T21:02:24.010Z,26.40
2018-07-31T21:05:22.256Z,26.40
2018-07-31T21:08:20.622Z,26.30
2018-07-31T21:11:19.184Z,26.30
2018-07-31T21:14:17.790Z,26.30
2018-07-31T21:17:16.253Z,26.30
2018-07-31T21:20:14.930Z,26.30
2018-07-31T21:23:13.216Z,26.20
2018-07-31T21:26:11.686Z,26.10
2018-07-31T21:29:10.210Z,26.20
2018-07-31T21:32:08.590Z,26.10
2018-07-31T21:35:06.979Z,26.10
2018-07-31T21:38:05.322Z,26.00
2018-07-31T21:41:03.691Z,26.00
2018-07-31T21:44:03.102Z,26.00
2018-07-31T21:47:01.590Z,26.00
2018-07-31T21:52:50.235Z,26.00
2018-07-31T21:55:48.548Z,25.90
2018-07-31T21:58:46.847Z,25.90
2018-07-31T22:01:45.333Z,25.80
2018-07-31T22:04:43.538Z,25.90
2018-07-31T22:07:41.915Z,25.80
2018-07-31T22:10:40.147Z,25.80
2018-07-31T22:13:38.419Z,25.80
2018-07-31T22:16:36.731Z,25.70
2018-07-31T22:19:35.172Z,25.70
2018-07-31T22:22:33.534Z,25.70
2018-07-31T22:25:31.779Z,25.60
2018-07-31T22:28:30.017Z,25.60
2018-07-31T22:31:28.443Z,25.60
2018-07-31T22:34:27.007Z,25.60
2018-07-31T22:37:25.236Z,25.50
2018-07-31T22:40:23.563Z,25.60
2018-07-31T22:43:21.981Z,25.50
2018-07-31T22:46:20.982Z,25.50
2018-07-31T22:49:19.209Z,25.40
2018-07-31T22:52:17.492Z,25.40
2018-07-31T22:55:16.157Z,25.40
2018-07-31T22:58:14.474Z,25.30
2018-07-31T23:01:12.918Z,25.30
2018-07-31T23:04:11.608Z,25.30
2018-07-31T23:07:09.764Z,25.30
2018-07-31T23:10:12.103Z,25.20
2018-07-31T23:13:10.663Z,25.30
2018-07-31T23:16:09.149Z,25.20
2018-07-31T23:19:07.837Z,25.20
2018-07-31T23:22:06.307Z,25.20
2018-07-31T23:25:04.656Z,25.10
2018-07-31T23:28:03.051Z,25.10
2018-07-31T23:31:01.533Z,25.00
2018-07-31T23:34:00.023Z,25.00
2018-07-31T23:36:58.463Z,25.00
2018-07-31T23:39:56.600Z,25.00
2018-07-31T23:42:55.208Z,25.00
2018-07-31T23:45:53.551Z,25.00
2018-07-31T23:48:52.014Z,24.90
2018-07-31T23:51:50.675Z,24.90
2018-07-31T23:54:49.336Z,24.90
2018-07-31T23:57:47.888Z,24.90
